createdAt,value
2018-06-29T00:02:01.913Z,4.13
2018-06-29T00:04:32.290Z,4.70
2018-06-29T00:07:03.447Z,4.30
2018-06-29T00:09:33.836Z,4.33
2018-06-29T00:12:04.211Z,4.03
2018-06-29T00:14:41.933Z,4.40
2018-06-29T00:17:12.311Z,4.50
2018-06-29T00:19:42.702Z,4.10
2018-06-29T00:22:13.382Z,4.27
2018-06-29T00:24:43.758Z,4.63
2018-06-29T00:27:14.135Z,4.30
2018-06-29T00:29:44.541Z,4.50
2018-06-29T00:32:15.683Z,4.27
2018-06-29T00:34:46.758Z,4.50
2018-06-29T00:37:19.203Z,4.50
2018-06-29T00:39:49.586Z,4.60
2018-06-29T00:42:19.954Z,4.63
2018-06-29T00:47:38.286Z,4.70
2018-06-29T00:50:08.676Z,4.90
2018-06-29T00:52:39.054Z,4.80
2018-06-29T00:55:09.429Z,4.30
2018-06-29T00:57:39.821Z,4.73
2018-06-29T01:00:13.385Z,4.70
2018-06-29T01:02:43.774Z,4.70
2018-06-29T01:05:14.144Z,4.67
2018-06-29T01:07:44.455Z,4.60
2018-06-29T01:10:14.853Z,4.50
2018-06-29T01:12:45.221Z,4.87
2018-06-29T01:15:15.618Z,4.57
2018-06-29T01:17:46.016Z,4.57
2018-06-29T01:20:16.388Z,4.80
2018-06-29T01:22:46.760Z,5.10
2018-06-29T01:25:17.143Z,4.67
2018-06-29T01:27:47.510Z,4.77
2018-06-29T01:30:17.881Z,4.30
2018-06-29T01:32:48.217Z,4.63
2018-06-29T01:35:18.591Z,4.67
2018-06-29T01:37:49.612Z,4.60
2018-06-29T01:40:20.024Z,4.40
2018-06-29T01:42:50.425Z,4.90
2018-06-29T01:45:20.805Z,4.67
2018-06-29T01:47:51.205Z,4.60
2018-06-29T01:50:21.578Z,4.70
2018-06-29T01:52:51.953Z,4.80
2018-06-29T01:55:22.364Z,4.80
2018-06-29T01:57:55.724Z,4.43
2018-06-29T02:00:26.105Z,4.63
2018-06-29T02:02:56.495Z,4.77
2018-06-29T02:05:26.810Z,4.60
2018-06-29T02:07:57.201Z,4.70
2018-06-29T02:10:27.514Z,4.83
2018-06-29T02:12:57.881Z,4.80
2018-06-29T02:15:28.244Z,4.70
2018-06-29T02:17:58.644Z,5.00
2018-06-29T02:20:29.028Z,4.90
2018-06-29T02:22:59.399Z,5.10
2018-06-29T02:25:29.968Z,4.90
2018-06-29T02:28:00.333Z,4.87
2018-06-29T02:30:31.547Z,5.00
2018-06-29T02:33:02.634Z,4.80
2018-06-29T02:35:33.008Z,4.37
2018-06-29T02:38:04.406Z,4.60
2018-06-29T02:40:34.813Z,4.63
2018-06-29T02:43:05.885Z,4.93
2018-06-29T02:45:36.245Z,4.50
2018-06-29T02:48:06.644Z,4.67
2018-06-29T02:50:37.021Z,4.90
2018-06-29T02:53:07.397Z,4.67
2018-06-29T02:55:37.817Z,5.00
2018-06-29T02:58:08.186Z,4.90
2018-06-29T03:00:38.551Z,4.40
2018-06-29T03:03:09.648Z,4.87
2018-06-29T03:05:40.007Z,5.37
2018-06-29T03:08:10.376Z,4.83
2018-06-29T03:10:44.897Z,4.93
2018-06-29T03:13:17.318Z,5.43
2018-06-29T03:15:47.698Z,4.87
2018-06-29T03:18:18.092Z,5.30
2018-06-29T03:20:49.227Z,5.13
2018-06-29T03:23:19.588Z,4.87
2018-06-29T03:25:50.170Z,4.73
2018-06-29T03:28:20.553Z,4.80
2018-06-29T03:30:52.974Z,4.80
2018-06-29T03:33:23.371Z,4.57
2018-06-29T03:36:15.158Z,4.83
2018-06-29T03:38:45.552Z,5.30
2018-06-29T03:41:15.936Z,4.87
2018-06-29T03:43:48.353Z,4.87
2018-06-29T03:46:18.750Z,5.00
2018-06-29T03:49:09.509Z,4.87
2018-06-29T03:51:40.673Z,5.10
2018-06-29T03:54:11.041Z,4.40
2018-06-29T03:56:41.398Z,4.83
2018-06-29T03:59:12.545Z,5.03
2018-06-29T04:01:43.666Z,4.97
2018-06-29T04:04:14.044Z,4.80
2018-06-29T04:06:44.442Z,5.10
2018-06-29T04:09:14.818Z,4.63
2018-06-29T04:11:49.333Z,4.90
2018-06-29T04:14:22.494Z,4.93
2018-06-29T04:16:53.631Z,4.60
2018-06-29T04:19:25.727Z,4.63
2018-06-29T04:21:58.181Z,4.93
2018-06-29T04:24:29.584Z,5.07
2018-06-29T04:27:00.637Z,5.00
2018-06-29T04:29:31.035Z,4.83
2018-06-29T04:32:01.405Z,5.13
2018-06-29T04:34:32.548Z,4.70
2018-06-29T04:37:03.721Z,4.90
2018-06-29T04:39:34.088Z,5.70
2018-06-29T04:42:04.400Z,4.67
2018-06-29T04:44:36.846Z,4.70
2018-06-29T04:47:07.230Z,4.93
2018-06-29T04:49:37.543Z,4.70
2018-06-29T04:52:07.939Z,5.10
2018-06-29T04:54:43.375Z,4.60
2018-06-29T05:00:03.010Z,4.73
2018-06-29T05:02:33.402Z,5.17
2018-06-29T05:05:03.719Z,5.00
2018-06-29T05:07:34.080Z,5.27
2018-06-29T05:10:04.662Z,5.30
2018-06-29T05:12:35.043Z,4.97
2018-06-29T05:15:05.426Z,5.10
2018-06-29T05:17:35.824Z,4.90
2018-06-29T05:20:06.953Z,4.60
2018-06-29T05:22:37.329Z,5.10
2018-06-29T05:25:07.733Z,5.10
2018-06-29T05:27:38.886Z,4.43
2018-06-29T05:30:09.261Z,4.80
2018-06-29T05:32:39.675Z,4.60
2018-06-29T05:35:33.432Z,4.80
2018-06-29T05:38:03.843Z,4.77
2018-06-29T05:40:34.850Z,4.67
2018-06-29T05:43:05.163Z,5.50
2018-06-29T05:45:35.554Z,4.87
2018-06-29T05:48:05.934Z,5.43
2018-06-29T05:50:36.245Z,5.13
2018-06-29T05:53:06.709Z,5.00
2018-06-29T05:55:37.026Z,5.47
2018-06-29T05:58:08.172Z,5.60
2018-06-29T06:00:39.280Z,5.00
2018-06-29T06:03:09.656Z,5.20
2018-06-29T06:05:40.021Z,5.57
2018-06-29T06:08:10.430Z,5.43
2018-06-29T06:10:45.923Z,5.57
2018-06-29T06:13:17.094Z,5.07
2018-06-29T06:15:47.461Z,6.65
2018-06-29T06:18:39.340Z,5.83
2018-06-29T06:21:10.414Z,5.10
2018-06-29T06:23:42.839Z,5.23
2018-06-29T06:26:13.216Z,4.67
2018-06-29T06:28:45.870Z,5.27
2018-06-29T06:31:16.243Z,5.07
2018-06-29T06:33:46.821Z,5.33
2018-06-29T06:36:17.185Z,4.97
2018-06-29T06:38:47.558Z,5.03
2018-06-29T06:41:17.953Z,5.20
2018-06-29T06:43:48.337Z,5.23
2018-06-29T06:46:19.445Z,5.20
2018-06-29T06:48:49.845Z,4.63
2018-06-29T06:51:20.221Z,4.53
2018-06-29T06:53:51.369Z,5.03
2018-06-29T06:56:21.762Z,5.43
2018-06-29T06:58:52.139Z,4.93
2018-06-29T07:01:22.514Z,5.20
2018-06-29T07:03:52.923Z,4.80
2018-06-29T07:06:23.299Z,5.17
2018-06-29T07:08:54.439Z,4.70
2018-06-29T07:11:25.605Z,5.00
2018-06-29T07:13:55.982Z,4.70
2018-06-29T07:16:26.364Z,4.50
2018-06-29T07:18:56.752Z,5.00
2018-06-29T07:21:27.900Z,4.57
2018-06-29T07:23:59.043Z,5.20
2018-06-29T07:26:30.203Z,5.00
2018-06-29T07:29:00.582Z,4.90
2018-06-29T07:31:30.953Z,4.77
2018-06-29T07:34:02.120Z,5.23
2018-06-29T07:36:33.210Z,4.80
2018-06-29T07:39:03.579Z,4.60
2018-06-29T07:41:33.967Z,5.23
2018-06-29T07:44:04.341Z,5.30
2018-06-29T07:46:34.716Z,5.53
2018-06-29T07:49:07.097Z,5.23
2018-06-29T07:51:37.478Z,5.77
2018-06-29T07:54:26.968Z,5.30
2018-06-29T07:56:57.346Z,5.47
2018-06-29T07:59:28.477Z,5.13
2018-06-29T08:01:59.646Z,4.77
2018-06-29T08:04:30.002Z,4.80
2018-06-29T08:07:20.788Z,5.50
2018-06-29T08:09:51.172Z,5.33
2018-06-29T08:12:21.535Z,5.63
2018-06-29T08:14:51.932Z,5.47
2018-06-29T08:17:23.006Z,5.27
2018-06-29T08:19:53.385Z,5.27
2018-06-29T08:22:23.778Z,5.10
2018-06-29T08:25:04.394Z,5.03
2018-06-29T08:27:35.821Z,4.90
2018-06-29T08:30:06.389Z,5.30
2018-06-29T08:32:37.534Z,5.33
2018-06-29T08:35:08.687Z,5.10
2018-06-29T08:37:39.079Z,4.90
2018-06-29T08:40:10.227Z,4.70
2018-06-29T08:42:40.562Z,5.40
2018-06-29T08:45:11.708Z,5.50
2018-06-29T08:47:42.077Z,5.40
2018-06-29T08:50:19.733Z,4.70
2018-06-29T08:52:50.877Z,5.00
2018-06-29T08:55:22.231Z,5.10
2018-06-29T08:57:53.395Z,5.40
2018-06-29T09:00:23.767Z,4.93
2018-06-29T09:02:54.136Z,5.10
2018-06-29T09:05:24.527Z,5.43
2018-06-29T09:07:55.674Z,5.23
2018-06-29T09:10:25.991Z,5.13
2018-06-29T09:12:57.139Z,5.47
2018-06-29T09:18:11.736Z,5.50
2018-06-29T09:20:43.069Z,4.90
2018-06-29T09:23:13.439Z,4.87
2018-06-29T09:25:43.829Z,5.07
2018-06-29T09:28:14.960Z,4.90
2018-06-29T09:30:45.323Z,4.90
2018-06-29T09:33:15.723Z,4.73
2018-06-29T09:35:46.100Z,5.67
2018-06-29T09:38:19.478Z,5.43
2018-06-29T09:40:49.878Z,5.67
2018-06-29T09:43:20.255Z,5.17
2018-06-29T09:46:09.756Z,5.30
2018-06-29T09:48:40.159Z,5.53
2018-06-29T09:51:11.475Z,5.37
2018-06-29T09:53:41.868Z,5.20
2018-06-29T09:56:14.289Z,5.70
2018-06-29T09:58:44.663Z,5.50
2018-06-29T10:01:15.140Z,5.20
2018-06-29T10:03:51.563Z,5.03
2018-06-29T10:06:22.008Z,5.40
2018-06-29T10:09:12.461Z,5.80
2018-06-29T10:12:02.220Z,5.03
2018-06-29T10:14:32.640Z,5.57
2018-06-29T10:17:02.960Z,5.47
2018-06-29T10:19:34.094Z,5.47
2018-06-29T10:22:04.474Z,5.67
2018-06-29T10:24:34.817Z,5.33
2018-06-29T10:27:05.148Z,5.57
2018-06-29T10:29:35.514Z,5.50
2018-06-29T10:32:05.895Z,5.40
2018-06-29T10:34:36.281Z,5.70
2018-06-29T10:37:10.753Z,5.00
2018-06-29T10:39:41.160Z,5.47
2018-06-29T10:42:11.531Z,5.20
2018-06-29T10:44:44.021Z,5.13
2018-06-29T10:47:15.115Z,5.57
2018-06-29T10:49:45.491Z,5.30
2018-06-29T10:52:15.813Z,5.10
2018-06-29T10:54:46.199Z,5.53
2018-06-29T10:57:17.335Z,5.20
2018-06-29T10:59:47.702Z,5.30
2018-06-29T11:02:18.089Z,5.20
2018-06-29T11:04:48.399Z,5.10
2018-06-29T11:07:18.770Z,4.77
2018-06-29T11:09:51.960Z,5.07
2018-06-29T11:12:23.095Z,5.07
2018-06-29T11:14:53.472Z,5.20
2018-06-29T11:17:45.980Z,4.90
2018-06-29T11:20:17.150Z,5.33
2018-06-29T11:22:49.568Z,5.20
2018-06-29T11:25:19.959Z,4.97
2018-06-29T11:28:10.464Z,4.90
2018-06-29T11:31:02.286Z,5.23
2018-06-29T11:33:39.815Z,5.17
2018-06-29T11:36:10.230Z,5.00
2018-06-29T11:38:40.619Z,5.13
2018-06-29T11:41:10.989Z,4.53
2018-06-29T11:43:41.334Z,4.63
2018-06-29T11:46:11.699Z,5.03
2018-06-29T11:48:42.129Z,5.30
2018-06-29T11:51:12.481Z,5.00
2018-06-29T11:53:42.859Z,5.00
2018-06-29T11:56:13.298Z,5.43
2018-06-29T11:58:43.632Z,5.17
2018-06-29T12:01:13.999Z,5.13
2018-06-29T12:03:44.312Z,5.17
2018-06-29T12:06:14.704Z,5.13
2018-06-29T12:08:45.087Z,5.10
2018-06-29T12:11:15.463Z,5.03
2018-06-29T12:13:46.888Z,5.67
2018-06-29T12:16:17.520Z,4.70
2018-06-29T12:18:49.316Z,4.83
2018-06-29T12:21:19.731Z,5.00
2018-06-29T12:23:50.102Z,5.30
2018-06-29T12:26:20.477Z,4.93
2018-06-29T12:28:50.871Z,5.03
2018-06-29T12:31:21.248Z,4.87
2018-06-29T12:34:11.015Z,5.03
2018-06-29T12:36:41.375Z,5.20
2018-06-29T12:39:11.699Z,5.37
2018-06-29T12:41:42.088Z,4.73
2018-06-29T12:46:59.625Z,4.90
2018-06-29T12:49:31.015Z,4.80
2018-06-29T12:52:01.411Z,5.37
2018-06-29T12:54:31.799Z,5.03
2018-06-29T12:57:02.897Z,5.30
2018-06-29T12:59:40.541Z,5.00
2018-06-29T13:02:11.664Z,5.13
2018-06-29T13:04:42.047Z,4.90
2018-06-29T13:07:12.430Z,5.07
2018-06-29T13:09:42.796Z,4.90
2018-06-29T13:12:13.177Z,4.93
2018-06-29T13:14:43.573Z,4.90
2018-06-29T13:17:35.097Z,4.93
2018-06-29T13:20:27.671Z,5.20
2018-06-29T13:22:58.042Z,4.80
2018-06-29T13:25:28.417Z,4.70
2018-06-29T13:27:58.811Z,5.13
2018-06-29T13:30:34.302Z,4.80
2018-06-29T13:33:04.705Z,4.93
2018-06-29T13:35:37.932Z,4.93
2018-06-29T13:38:09.076Z,4.87
2018-06-29T13:40:40.233Z,4.67
2018-06-29T13:43:11.372Z,4.90
2018-06-29T13:45:42.517Z,5.00
2018-06-29T13:48:13.655Z,4.80
2018-06-29T13:50:44.977Z,4.90
2018-06-29T13:53:15.352Z,4.80
2018-06-29T13:55:45.750Z,5.03
2018-06-29T13:58:16.881Z,4.90
2018-06-29T14:00:47.275Z,4.63
2018-06-29T14:03:17.647Z,5.40
2018-06-29T14:05:48.799Z,4.43
2018-06-29T14:08:19.936Z,4.80
2018-06-29T14:10:51.144Z,5.03
2018-06-29T14:13:23.320Z,5.33
2018-06-29T14:15:54.385Z,5.27
2018-06-29T14:18:24.796Z,4.90
2018-06-29T14:20:55.848Z,5.30
2018-06-29T14:23:26.300Z,5.03
2018-06-29T14:26:00.728Z,5.13
2018-06-29T14:28:32.067Z,4.97
2018-06-29T14:31:03.199Z,5.10
2018-06-29T14:33:34.674Z,5.13
2018-06-29T14:36:04.995Z,5.13
2018-06-29T14:38:36.139Z,4.37
2018-06-29T14:41:07.302Z,5.37
2018-06-29T14:43:38.633Z,4.80
2018-06-29T14:46:09.018Z,4.63
2018-06-29T14:48:39.693Z,4.80
2018-06-29T14:51:13.102Z,4.90
2018-06-29T14:53:44.242Z,5.00
2018-06-29T14:56:14.653Z,5.03
2018-06-29T14:58:45.779Z,4.47
2018-06-29T15:01:16.149Z,4.73
2018-06-29T15:03:46.565Z,4.97
2018-06-29T15:06:16.942Z,4.80
2018-06-29T15:08:47.512Z,5.00
2018-06-29T15:11:21.664Z,4.60
2018-06-29T15:13:52.034Z,4.73
2018-06-29T15:16:22.416Z,4.80
2018-06-29T15:18:52.833Z,4.60
2018-06-29T15:21:25.619Z,5.30
2018-06-29T15:23:55.987Z,4.80
2018-06-29T15:26:26.378Z,5.07
2018-06-29T15:28:57.772Z,5.13
2018-06-29T15:31:28.201Z,4.80
2018-06-29T15:34:00.602Z,4.67
2018-06-29T15:36:31.730Z,4.50
2018-06-29T15:39:02.110Z,4.67
2018-06-29T15:41:51.977Z,4.97
2018-06-29T15:44:22.349Z,4.90
2018-06-29T15:46:53.758Z,4.83
2018-06-29T15:49:28.244Z,4.80
2018-06-29T15:51:59.391Z,5.30
2018-06-29T15:54:30.518Z,4.90
2018-06-29T15:57:01.695Z,4.93
2018-06-29T15:59:32.063Z,4.73
2018-06-29T16:02:02.426Z,5.10
2018-06-29T16:04:32.819Z,4.73
2018-06-29T16:07:03.188Z,4.80
2018-06-29T16:09:34.321Z,5.50
2018-06-29T16:12:05.486Z,5.40
2018-06-29T16:14:36.603Z,4.93
2018-06-29T16:17:07.740Z,5.13
2018-06-29T16:19:38.063Z,5.00
2018-06-29T16:22:09.198Z,5.07
2018-06-29T16:24:39.578Z,5.20
2018-06-29T16:30:03.376Z,4.87
2018-06-29T16:32:33.763Z,4.93
2018-06-29T16:35:04.891Z,5.33
2018-06-29T16:37:35.336Z,5.00
2018-06-29T16:40:05.645Z,5.03
2018-06-29T16:42:36.011Z,4.97
2018-06-29T16:45:06.378Z,4.83
2018-06-29T16:47:36.763Z,5.40
2018-06-29T16:50:07.902Z,5.20
2018-06-29T16:52:38.451Z,5.00
2018-06-29T16:55:08.839Z,5.00
2018-06-29T16:57:39.915Z,5.40
2018-06-29T17:00:10.527Z,5.07
2018-06-29T17:02:44.129Z,4.90
2018-06-29T17:05:14.498Z,5.40
2018-06-29T17:07:44.808Z,5.40
2018-06-29T17:10:15.212Z,4.83
2018-06-29T17:12:45.577Z,4.83
2018-06-29T17:15:21.084Z,5.00
2018-06-29T17:17:56.298Z,4.77
2018-06-29T17:20:26.691Z,5.20
2018-06-29T17:23:16.426Z,4.67
2018-06-29T17:25:46.806Z,5.57
2018-06-29T17:28:17.185Z,4.97
2018-06-29T17:30:47.547Z,4.90
2018-06-29T17:33:32.045Z,5.20
2018-06-29T17:35:50.282Z,4.63
2018-06-29T17:38:20.650Z,5.67
2018-06-29T17:40:51.036Z,4.63
2018-06-29T17:43:21.401Z,4.80
2018-06-29T17:45:51.769Z,4.53
2018-06-29T17:48:22.165Z,4.80
2018-06-29T17:50:58.654Z,5.03
2018-06-29T17:53:35.373Z,4.70
2018-06-29T17:56:06.510Z,4.63
2018-06-29T17:58:37.639Z,4.87
2018-06-29T18:01:08.023Z,4.57
2018-06-29T18:03:41.458Z,4.87
2018-06-29T18:06:11.822Z,5.03
2018-06-29T18:08:42.225Z,4.93
2018-06-29T18:11:12.588Z,5.10
2018-06-29T18:13:42.959Z,4.73
2018-06-29T18:16:13.361Z,4.63
2018-06-29T18:18:46.822Z,5.17
2018-06-29T18:21:20.216Z,5.20
2018-06-29T18:23:51.347Z,4.87
2018-06-29T18:26:21.716Z,4.93
2018-06-29T18:28:52.107Z,5.10
2018-06-29T18:31:22.569Z,5.23
2018-06-29T18:34:11.979Z,4.80
2018-06-29T18:36:45.322Z,4.90
2018-06-29T18:39:15.607Z,4.50
2018-06-29T18:41:45.990Z,4.73
2018-06-29T18:44:21.472Z,4.60
2018-06-29T18:46:51.859Z,4.70
2018-06-29T18:49:22.234Z,4.70
2018-06-29T18:51:52.604Z,4.77
2018-06-29T18:54:22.994Z,4.50
2018-06-29T18:56:54.119Z,4.50
2018-06-29T18:59:25.504Z,4.43
2018-06-29T19:01:55.895Z,5.10
2018-06-29T19:04:26.258Z,4.85
2018-06-29T19:06:56.631Z,4.20
2018-06-29T19:09:46.403Z,4.10
2018-06-29T19:12:19.557Z,4.40
2018-06-29T19:14:49.927Z,4.00
2018-06-29T19:17:25.443Z,4.07
2018-06-29T19:19:55.816Z,3.83
2018-06-29T19:22:26.196Z,4.17
2018-06-29T19:24:56.666Z,4.17
2018-06-29T19:27:27.037Z,3.80
2018-06-29T19:29:59.766Z,4.00
2018-06-29T19:32:33.835Z,4.03
2018-06-29T19:35:04.214Z,3.57
2018-06-29T19:37:34.561Z,3.87
2018-06-29T19:40:04.951Z,3.90
2018-06-29T19:42:56.744Z,3.77
2018-06-29T19:45:27.130Z,3.83
2018-06-29T19:47:57.503Z,4.20
2018-06-29T19:53:12.630Z,3.90
2018-06-29T19:55:48.980Z,4.23
2018-06-29T19:58:24.422Z,3.83
2018-06-29T20:01:00.631Z,4.00
2018-06-29T20:03:31.012Z,3.90
2018-06-29T20:06:01.382Z,3.93
2018-06-29T20:08:34.568Z,3.90
2018-06-29T20:11:07.645Z,4.13
2018-06-29T20:13:37.989Z,4.00
2018-06-29T20:16:08.370Z,4.13
2018-06-29T20:18:42.866Z,3.57
2018-06-29T20:21:13.244Z,4.00
2018-06-29T20:23:43.602Z,3.73
2018-06-29T20:26:14.777Z,3.83
2018-06-29T20:28:45.384Z,3.93
2018-06-29T20:31:19.188Z,3.70
2018-06-29T20:33:49.577Z,3.87
2018-06-29T20:36:19.952Z,4.00
2018-06-29T20:38:50.496Z,4.10
2018-06-29T20:41:40.024Z,3.60
2018-06-29T20:44:10.404Z,3.83
2018-06-29T20:46:43.706Z,4.10
2018-06-29T20:49:15.133Z,4.07
2018-06-29T20:51:45.497Z,4.10
2018-06-29T20:54:15.808Z,4.00
2018-06-29T20:56:49.269Z,4.30
2018-06-29T20:59:20.410Z,4.13
2018-06-29T21:01:51.537Z,4.30
2018-06-29T21:04:21.863Z,3.77
2018-06-29T21:06:55.074Z,4.60
2018-06-29T21:09:26.203Z,3.77
2018-06-29T21:11:56.599Z,3.90
2018-06-29T21:14:47.372Z,4.03
2018-06-29T21:17:20.228Z,4.00
2018-06-29T21:19:51.370Z,4.00
2018-06-29T21:22:22.514Z,3.67
2018-06-29T21:24:53.683Z,3.80
2018-06-29T21:27:26.763Z,4.03
2018-06-29T21:29:58.113Z,3.80
2018-06-29T21:32:31.994Z,3.63
2018-06-29T21:35:02.303Z,3.73
2018-06-29T21:37:32.671Z,4.20
2018-06-29T21:40:03.830Z,4.10
2018-06-29T21:42:34.266Z,4.00
2018-06-29T21:45:04.646Z,3.90
2018-06-29T21:47:35.095Z,3.70
2018-06-29T21:50:06.172Z,3.90
2018-06-29T21:52:39.648Z,4.00
2018-06-29T21:55:10.709Z,3.93
2018-06-29T21:57:42.881Z,4.10
2018-06-29T22:00:13.274Z,3.60
2018-06-29T22:02:44.418Z,3.80
2018-06-29T22:05:16.575Z,4.00
2018-06-29T22:07:47.744Z,4.23
2018-06-29T22:10:18.132Z,4.10
2018-06-29T22:12:48.435Z,3.90
2018-06-29T22:15:18.836Z,4.20
2018-06-29T22:17:49.207Z,3.90
2018-06-29T22:20:19.587Z,4.40
2018-06-29T22:22:49.976Z,4.80
2018-06-29T22:25:21.117Z,4.40
2018-06-29T22:27:52.528Z,4.43
2018-06-29T22:30:22.844Z,4.80
2018-06-29T22:32:53.216Z,5.03
2018-06-29T22:35:23.593Z,4.80
2018-06-29T22:37:55.024Z,4.93
2018-06-29T22:40:25.338Z,4.80
2018-06-29T22:42:57.167Z,5.23
2018-06-29T22:45:27.568Z,4.60
2018-06-29T22:47:57.950Z,4.40
2018-06-29T22:50:29.022Z,4.50
2018-06-29T22:52:59.419Z,4.87
2018-06-29T22:55:30.562Z,5.23
2018-06-29T22:58:01.705Z,5.60
2018-06-29T23:00:32.873Z,5.30
2018-06-29T23:03:03.253Z,5.00
2018-06-29T23:05:33.626Z,4.97
2018-06-29T23:08:04.024Z,5.00
2018-06-29T23:10:36.183Z,5.00
2018-06-29T23:13:06.562Z,4.83
2018-06-29T23:15:36.947Z,5.40
2018-06-29T23:18:07.316Z,5.13
2018-06-29T23:20:43.841Z,5.20
2018-06-29T23:23:14.977Z,5.37
2018-06-29T23:25:46.115Z,4.70
2018-06-29T23:28:16.519Z,5.40
2018-06-29T23:30:46.900Z,5.20
2018-06-29T23:33:17.215Z,5.37
2018-06-29T23:35:48.329Z,5.27
2018-06-29T23:38:18.698Z,5.07
2018-06-29T23:40:49.009Z,5.00
2018-06-29T23:43:20.458Z,5.03
2018-06-29T23:45:51.612Z,4.70
2018-06-29T23:48:21.989Z,5.30
2018-06-29T23:50:52.384Z,4.97
2018-06-29T23:53:24.807Z,5.67
2018-06-29T23:55:55.185Z,5.37
2018-06-29T23:58:26.598Z,4.70
